createdAt,value
2022-11-08T00:02:01.078Z,1.20
2022-11-08T00:05:21.463Z,1.42
2022-11-08T00:08:41.735Z,1.60
2022-11-08T00:12:02.180Z,1.48
2022-11-08T00:15:04.916Z,1.50
2022-11-08T00:18:07.699Z,1.40
2022-11-08T00:21:09.370Z,1.75
2022-11-08T00:24:11.070Z,1.50
2022-11-08T00:27:21.369Z,1.60
2022-11-08T00:30:23.076Z,1.52
2022-11-08T00:33:24.703Z,1.60
2022-11-08T00:36:26.550Z,1.70
2022-11-08T00:39:28.492Z,1.50
2022-11-08T00:42:30.220Z,1.85
2022-11-08T00:45:31.955Z,1.70
2022-11-08T00:48:33.677Z,1.80
2022-11-08T00:51:35.457Z,1.90
2022-11-08T00:54:37.089Z,1.80
2022-11-08T00:57:57.957Z,1.92
2022-11-08T01:01:00.633Z,1.70
2022-11-08T01:04:02.461Z,1.77
2022-11-08T01:07:04.260Z,1.60
2022-11-08T01:10:06.456Z,1.90
2022-11-08T01:13:08.541Z,1.65
2022-11-08T01:16:21.590Z,1.60
2022-11-08T01:19:23.216Z,1.63
2022-11-08T01:22:24.976Z,1.40
2022-11-08T01:25:26.685Z,1.40
2022-11-08T01:28:28.413Z,1.60
2022-11-08T01:31:32.281Z,1.60
2022-11-08T01:34:34.045Z,1.60
2022-11-08T01:37:35.678Z,1.50
2022-11-08T01:40:48.347Z,1.50
2022-11-08T01:43:52.127Z,1.80
2022-11-08T01:46:53.810Z,1.38
2022-11-08T01:50:02.033Z,1.70
2022-11-08T01:53:03.801Z,1.23
2022-11-08T01:56:06.875Z,1.55
2022-11-08T01:59:10.463Z,1.80
2022-11-08T02:02:12.858Z,1.70
2022-11-08T02:05:26.794Z,1.60
2022-11-08T02:08:38.558Z,2.08
2022-11-08T02:11:41.135Z,1.50
2022-11-08T02:14:45.003Z,1.60
2022-11-08T02:17:46.732Z,1.50
2022-11-08T02:21:16.689Z,1.65
2022-11-08T02:24:18.445Z,1.60
2022-11-08T02:27:20.323Z,1.38
2022-11-08T02:30:22.063Z,1.70
2022-11-08T02:33:23.760Z,1.70
2022-11-08T02:36:25.666Z,1.80
2022-11-08T02:39:28.770Z,1.40
2022-11-08T02:42:30.506Z,1.38
2022-11-08T02:45:32.668Z,1.70
2022-11-08T02:48:34.512Z,1.70
2022-11-08T02:51:36.179Z,1.80
2022-11-08T02:54:37.997Z,1.65
2022-11-08T02:57:39.724Z,1.60
2022-11-08T03:00:41.444Z,1.70
2022-11-08T03:03:43.155Z,1.80
2022-11-08T03:06:44.945Z,1.73
2022-11-08T03:09:46.611Z,1.83
2022-11-08T03:12:57.808Z,1.70
2022-11-08T03:16:02.530Z,1.58
2022-11-08T03:19:04.327Z,1.67
2022-11-08T03:22:06.039Z,1.80
2022-11-08T03:25:08.103Z,1.77
2022-11-08T03:28:09.999Z,1.75
2022-11-08T03:31:11.719Z,1.63
2022-11-08T03:34:13.549Z,1.67
2022-11-08T03:37:15.540Z,1.70
2022-11-08T03:40:18.816Z,1.30
2022-11-08T03:43:20.587Z,1.40
2022-11-08T03:46:22.368Z,1.30
2022-11-08T03:49:24.191Z,1.40
2022-11-08T03:52:25.883Z,1.50
2022-11-08T03:55:28.775Z,1.70
2022-11-08T03:58:30.676Z,1.60
2022-11-08T04:01:32.606Z,1.50
2022-11-08T04:04:34.397Z,1.60
2022-11-08T04:07:36.798Z,2.00
2022-11-08T04:10:38.521Z,1.73
2022-11-08T04:13:59.043Z,1.50
2022-11-08T04:17:00.785Z,1.70
2022-11-08T04:20:21.202Z,1.42
2022-11-08T04:23:23.011Z,1.77
2022-11-08T04:26:24.703Z,1.75
2022-11-08T04:29:26.273Z,1.50
2022-11-08T04:32:28.059Z,1.67
2022-11-08T04:35:30.455Z,1.60
2022-11-08T04:38:33.182Z,1.50
2022-11-08T04:41:35.037Z,2.20
2022-11-08T04:44:36.713Z,2.10
2022-11-08T04:47:42.034Z,1.77
2022-11-08T04:50:46.119Z,1.80
2022-11-08T04:53:47.942Z,1.70
2022-11-08T04:56:49.853Z,2.00
2022-11-08T04:59:51.492Z,2.45
2022-11-08T05:02:53.929Z,2.83
2022-11-08T05:05:55.740Z,3.33
2022-11-08T05:08:59.143Z,4.57
2022-11-08T05:12:01.061Z,2.40
2022-11-08T05:15:02.759Z,3.38
2022-11-08T05:18:04.542Z,3.33
2022-11-08T05:21:24.995Z,2.50
2022-11-08T05:24:26.831Z,1.88
2022-11-08T05:27:28.727Z,1.92
2022-11-08T05:30:30.361Z,2.00
2022-11-08T05:33:32.398Z,1.65
2022-11-08T05:36:34.330Z,1.70
2022-11-08T05:39:36.058Z,1.88
2022-11-08T05:42:37.718Z,2.00
2022-11-08T05:45:39.369Z,1.95
2022-11-08T05:48:45.014Z,2.28
2022-11-08T05:51:46.692Z,1.90
2022-11-08T05:54:48.262Z,2.03
2022-11-08T05:57:50.411Z,2.00
2022-11-08T06:00:58.920Z,2.00
2022-11-08T06:04:00.902Z,1.83
2022-11-08T06:07:02.596Z,2.33
2022-11-08T06:10:05.553Z,2.20
2022-11-08T06:13:07.368Z,2.00
2022-11-08T06:16:12.483Z,2.20
2022-11-08T06:19:14.180Z,1.83
2022-11-08T06:22:15.876Z,1.70
2022-11-08T06:25:17.671Z,1.83
2022-11-08T06:28:19.542Z,1.90
2022-11-08T06:31:21.261Z,2.20
2022-11-08T06:34:22.991Z,2.00
2022-11-08T06:37:24.652Z,1.80
2022-11-08T06:40:26.216Z,1.88
2022-11-08T06:43:28.391Z,2.00
2022-11-08T06:46:30.300Z,1.90
2022-11-08T06:49:31.979Z,1.90
2022-11-08T06:52:33.726Z,4.95
2022-11-08T06:55:35.673Z,5.45
2022-11-08T06:58:37.453Z,8.82
2022-11-08T07:01:43.235Z,7.15
2022-11-08T07:04:47.189Z,7.22
2022-11-08T07:07:52.142Z,3.92
2022-11-08T07:10:53.904Z,3.55
2022-11-08T07:13:55.707Z,2.80
2022-11-08T07:16:57.370Z,2.20
2022-11-08T07:19:59.004Z,1.98
2022-11-08T07:23:01.393Z,2.42
2022-11-08T07:26:04.645Z,2.60
2022-11-08T07:29:06.374Z,5.43
2022-11-08T07:32:08.019Z,2.33
2022-11-08T07:35:09.920Z,2.65
2022-11-08T07:38:11.551Z,3.58
2022-11-08T07:41:13.286Z,4.25
2022-11-08T07:44:15.110Z,2.95
2022-11-08T07:47:16.783Z,3.80
2022-11-08T07:50:18.509Z,2.90
2022-11-08T07:53:21.094Z,2.60
2022-11-08T07:56:22.855Z,2.65
2022-11-08T07:59:24.690Z,2.40
2022-11-08T08:02:26.394Z,2.30
2022-11-08T08:05:30.188Z,2.08
2022-11-08T08:08:31.931Z,2.30
2022-11-08T08:11:34.042Z,2.47
2022-11-08T08:14:37.245Z,2.13
2022-11-08T08:17:38.897Z,4.30
2022-11-08T08:20:40.510Z,3.33
2022-11-08T08:23:42.100Z,2.35
2022-11-08T08:26:43.775Z,2.20
2022-11-08T08:29:45.563Z,3.10
2022-11-08T08:32:57.673Z,2.30
2022-11-08T08:36:09.927Z,2.10
2022-11-08T08:39:11.518Z,2.10
2022-11-08T08:42:13.206Z,1.80
2022-11-08T08:45:15.364Z,2.10
2022-11-08T08:48:17.511Z,2.05
2022-11-08T08:51:19.651Z,2.08
2022-11-08T08:54:24.600Z,1.60
2022-11-08T08:57:29.999Z,1.70
2022-11-08T09:03:54.985Z,1.40
2022-11-08T09:06:56.752Z,1.58
2022-11-08T09:09:58.362Z,1.65
2022-11-08T09:13:01.920Z,1.73
2022-11-08T09:16:03.951Z,1.60
2022-11-08T09:19:05.752Z,1.70
2022-11-08T09:22:07.505Z,1.80
2022-11-08T09:25:10.463Z,1.70
2022-11-08T09:28:12.170Z,2.00
2022-11-08T09:31:13.907Z,2.10
2022-11-08T09:34:17.739Z,1.77
2022-11-08T09:37:24.086Z,1.40
2022-11-08T09:40:51.494Z,1.90
2022-11-08T09:43:59.997Z,1.85
2022-11-08T09:47:23.198Z,1.70
2022-11-08T09:50:34.578Z,1.40
2022-11-08T09:53:51.836Z,1.80
2022-11-08T09:56:54.362Z,1.58
2022-11-08T10:00:04.855Z,1.38
2022-11-08T10:03:12.943Z,1.60
2022-11-08T10:06:20.907Z,1.52
2022-11-08T10:09:40.872Z,1.45
2022-11-08T10:13:08.941Z,1.70
2022-11-08T10:16:20.240Z,1.50
2022-11-08T10:19:49.043Z,1.52
2022-11-08T10:23:21.623Z,1.45
2022-11-08T10:26:33.864Z,1.30
2022-11-08T10:29:41.969Z,1.48
2022-11-08T10:32:44.020Z,1.50
2022-11-08T10:35:50.228Z,1.70
2022-11-08T10:42:19.766Z,1.70
2022-11-08T10:45:21.387Z,1.42
2022-11-08T10:48:23.343Z,1.60
2022-11-08T10:51:24.990Z,1.60
2022-11-08T10:54:44.949Z,1.80
2022-11-08T10:57:46.744Z,1.65
2022-11-08T11:01:17.860Z,1.60
2022-11-08T11:04:27.881Z,1.70
2022-11-08T11:07:32.115Z,1.40
2022-11-08T11:10:38.300Z,1.52
2022-11-08T11:16:57.187Z,1.42
2022-11-08T11:19:59.112Z,1.60
2022-11-08T11:23:01.287Z,1.52
2022-11-08T11:26:04.436Z,1.48
2022-11-08T11:29:06.035Z,1.50
2022-11-08T11:32:34.647Z,1.60
2022-11-08T11:35:47.803Z,1.70
2022-11-08T11:38:59.400Z,1.75
2022-11-08T11:42:31.121Z,1.52
2022-11-08T11:45:40.223Z,1.50
2022-11-08T11:48:49.073Z,1.70
2022-11-08T11:51:56.482Z,1.40
2022-11-08T11:54:58.240Z,1.48
2022-11-08T11:58:19.162Z,1.80
2022-11-08T12:02:03.383Z,1.50
2022-11-08T12:05:23.996Z,1.35
2022-11-08T12:08:33.487Z,1.70
2022-11-08T12:12:14.959Z,1.40
2022-11-08T12:15:37.742Z,1.50
2022-11-08T12:19:00.782Z,1.63
2022-11-08T12:22:30.584Z,1.40
2022-11-08T12:25:43.838Z,1.40
2022-11-08T12:29:13.108Z,1.38
2022-11-08T12:32:27.009Z,1.23
2022-11-08T12:35:35.638Z,1.40
2022-11-08T12:38:52.531Z,1.30
2022-11-08T12:41:54.089Z,1.50
2022-11-08T12:45:17.497Z,1.30
2022-11-08T12:48:39.293Z,1.20
2022-11-08T12:52:25.956Z,1.55
2022-11-08T12:55:34.041Z,1.40
2022-11-08T12:58:41.185Z,1.60
2022-11-08T13:01:43.073Z,1.50
2022-11-08T13:04:56.204Z,1.30
2022-11-08T13:08:13.058Z,1.48
2022-11-08T13:11:27.926Z,1.95
2022-11-08T13:14:30.318Z,1.63
2022-11-08T13:17:31.955Z,1.60
2022-11-08T13:20:41.299Z,1.77
2022-11-08T13:23:43.006Z,1.73
2022-11-08T13:26:45.104Z,1.80
2022-11-08T13:29:46.857Z,2.10
2022-11-08T13:33:00.592Z,1.70
2022-11-08T13:36:14.695Z,2.20
2022-11-08T13:39:50.494Z,1.58
2022-11-08T13:43:10.824Z,1.40
2022-11-08T13:46:27.771Z,1.60
2022-11-08T13:49:29.483Z,1.50
2022-11-08T13:53:01.194Z,1.60
2022-11-08T13:56:05.560Z,1.90
2022-11-08T13:59:32.514Z,1.60
2022-11-08T14:02:35.295Z,1.40
2022-11-08T14:05:45.387Z,1.60
2022-11-08T14:09:05.768Z,1.52
2022-11-08T14:12:16.077Z,1.35
2022-11-08T14:15:29.579Z,1.67
2022-11-08T14:18:34.187Z,1.63
2022-11-08T14:21:36.444Z,1.58
2022-11-08T14:24:38.805Z,1.80
2022-11-08T14:27:41.379Z,1.65
2022-11-08T14:30:50.689Z,1.80
2022-11-08T14:33:53.854Z,1.52
2022-11-08T14:36:56.344Z,1.85
2022-11-08T14:39:58.066Z,1.60
2022-11-08T14:42:59.752Z,1.38
2022-11-08T14:46:15.702Z,1.70
2022-11-08T14:49:17.327Z,1.60
2022-11-08T14:52:25.978Z,1.80
2022-11-08T14:55:30.379Z,1.70
2022-11-08T14:58:32.113Z,2.20
2022-11-08T15:01:35.351Z,1.60
2022-11-08T15:04:40.159Z,1.60
2022-11-08T15:07:41.805Z,1.60
2022-11-08T15:10:58.669Z,1.60
2022-11-08T15:14:06.570Z,1.88
2022-11-08T15:17:36.032Z,1.52
2022-11-08T15:20:38.041Z,1.95
2022-11-08T15:23:49.982Z,2.17
2022-11-08T15:27:15.232Z,2.05
2022-11-08T15:30:19.584Z,2.60
2022-11-08T15:33:27.441Z,1.88
2022-11-08T15:36:35.654Z,3.08
2022-11-08T15:39:40.058Z,2.40
2022-11-08T15:42:47.577Z,2.00
2022-11-08T15:45:55.747Z,2.03
2022-11-08T15:48:59.303Z,2.15
2022-11-08T15:52:01.032Z,2.70
2022-11-08T15:55:02.698Z,1.92
2022-11-08T15:58:05.401Z,2.35
2022-11-08T16:01:07.171Z,2.25
2022-11-08T16:04:13.351Z,1.90
2022-11-08T16:10:20.374Z,1.80
2022-11-08T16:13:31.667Z,1.70
2022-11-08T16:16:35.408Z,1.75
2022-11-08T16:19:37.091Z,2.08
2022-11-08T16:22:38.810Z,2.03
2022-11-08T16:25:44.144Z,2.20
2022-11-08T16:28:45.895Z,2.23
2022-11-08T16:31:49.345Z,2.60
2022-11-08T16:34:50.982Z,2.72
2022-11-08T16:37:53.602Z,1.90
2022-11-08T16:40:55.534Z,2.13
2022-11-08T16:43:58.084Z,2.10
2022-11-08T16:46:59.791Z,2.05
2022-11-08T16:50:01.632Z,2.17
2022-11-08T16:53:03.434Z,2.50
2022-11-08T16:56:05.542Z,2.72
2022-11-08T16:59:07.259Z,3.33
2022-11-08T17:02:29.703Z,2.30
2022-11-08T17:05:31.437Z,2.00
2022-11-08T17:08:33.333Z,1.75
2022-11-08T17:11:35.110Z,2.03
2022-11-08T17:14:36.736Z,2.10
2022-11-08T17:17:38.618Z,2.25
2022-11-08T17:20:40.739Z,2.20
2022-11-08T17:23:42.480Z,2.00
2022-11-08T17:26:44.193Z,3.60
2022-11-08T17:29:45.761Z,2.90
2022-11-08T17:32:47.440Z,2.20
2022-11-08T17:35:49.156Z,1.88
2022-11-08T17:38:59.746Z,1.70
2022-11-08T17:42:01.451Z,1.80
2022-11-08T17:45:03.271Z,2.03
2022-11-08T17:48:04.976Z,2.63
2022-11-08T17:51:07.115Z,2.50
2022-11-08T17:54:08.826Z,1.90
2022-11-08T17:57:10.513Z,2.10
2022-11-08T18:00:12.706Z,3.70
2022-11-08T18:03:17.622Z,3.22
2022-11-08T18:06:19.869Z,2.90
2022-11-08T18:09:21.853Z,4.10
2022-11-08T18:12:24.095Z,2.70
2022-11-08T18:15:25.829Z,2.10
2022-11-08T18:18:28.577Z,2.65
2022-11-08T18:21:30.195Z,2.30
2022-11-08T18:24:32.209Z,1.60
2022-11-08T18:27:34.055Z,1.70
2022-11-08T18:30:35.778Z,1.60
2022-11-08T18:33:37.978Z,1.70
2022-11-08T18:36:39.826Z,1.80
2022-11-08T18:39:41.634Z,1.60
2022-11-08T18:42:43.290Z,1.60
2022-11-08T18:45:44.997Z,2.00
2022-11-08T18:48:47.278Z,2.20
2022-11-08T18:51:52.161Z,1.70
2022-11-08T18:54:54.450Z,2.10
2022-11-08T18:57:56.089Z,1.90
2022-11-08T19:00:58.106Z,1.80
2022-11-08T19:03:59.701Z,1.80
2022-11-08T19:07:01.477Z,1.90
2022-11-08T19:10:04.692Z,1.70
2022-11-08T19:13:06.517Z,1.60
2022-11-08T19:16:17.262Z,1.55
2022-11-08T19:19:18.990Z,2.03
2022-11-08T19:22:20.611Z,1.70
2022-11-08T19:25:22.747Z,1.45
2022-11-08T19:28:27.068Z,2.78
2022-11-08T19:31:32.098Z,3.13
2022-11-08T19:34:33.736Z,2.67
2022-11-08T19:37:35.439Z,2.80
2022-11-08T19:40:42.570Z,2.08
2022-11-08T19:43:45.745Z,3.28
2022-11-08T19:46:47.897Z,2.25
2022-11-08T19:49:49.586Z,1.88
2022-11-08T19:52:51.358Z,1.80
2022-11-08T19:56:04.895Z,1.75
2022-11-08T19:59:06.553Z,2.50
2022-11-08T20:02:09.187Z,3.22
2022-11-08T20:05:11.339Z,2.30
2022-11-08T20:08:12.903Z,1.80
2022-11-08T20:11:20.084Z,1.95
2022-11-08T20:14:21.848Z,2.10
2022-11-08T20:17:23.547Z,1.70
2022-11-08T20:20:25.372Z,2.00
2022-11-08T20:23:29.623Z,2.15
2022-11-08T20:26:31.359Z,2.60
2022-11-08T20:29:33.100Z,2.63
2022-11-08T20:32:34.790Z,2.90
2022-11-08T20:35:36.503Z,2.00
2022-11-08T20:38:38.301Z,1.90
2022-11-08T20:41:41.166Z,3.17
2022-11-08T20:44:43.133Z,2.00
2022-11-08T20:47:44.856Z,2.20
2022-11-08T20:50:46.666Z,2.83
2022-11-08T20:53:48.974Z,2.80
2022-11-08T20:56:50.596Z,2.63
2022-11-08T20:59:52.215Z,2.50
2022-11-08T21:02:53.888Z,2.33
2022-11-08T21:05:58.587Z,2.30
2022-11-08T21:09:07.543Z,2.65
2022-11-08T21:12:11.881Z,2.70
2022-11-08T21:15:13.528Z,2.92
2022-11-08T21:18:18.362Z,2.88
2022-11-08T21:21:22.462Z,2.75
2022-11-08T21:24:24.172Z,2.75
2022-11-08T21:27:29.570Z,3.20
2022-11-08T21:30:31.741Z,3.40
2022-11-08T21:33:33.885Z,2.60
2022-11-08T21:36:35.799Z,2.17
2022-11-08T21:39:37.485Z,1.98
2022-11-08T21:42:40.339Z,2.10
2022-11-08T21:45:44.615Z,1.88
2022-11-08T21:48:47.498Z,2.30
2022-11-08T21:51:49.281Z,1.90
2022-11-08T21:54:51.193Z,2.08
2022-11-08T21:57:52.841Z,1.90
2022-11-08T22:00:54.569Z,1.85
2022-11-08T22:03:56.388Z,1.90
2022-11-08T22:06:58.106Z,2.00
2022-11-08T22:10:00.072Z,1.80
2022-11-08T22:13:01.866Z,1.85
2022-11-08T22:16:03.849Z,1.73
2022-11-08T22:19:06.294Z,1.85
2022-11-08T22:22:08.601Z,2.30
2022-11-08T22:25:10.252Z,1.83
2022-11-08T22:28:11.850Z,1.80
2022-11-08T22:31:13.600Z,2.10
2022-11-08T22:34:15.612Z,1.63
2022-11-08T22:37:17.246Z,1.88
2022-11-08T22:40:18.886Z,1.77
2022-11-08T22:43:20.577Z,1.77
2022-11-08T22:46:22.255Z,1.85
2022-11-08T22:49:23.984Z,1.90
2022-11-08T22:52:25.639Z,1.77
2022-11-08T22:55:27.896Z,1.70
2022-11-08T22:58:30.991Z,1.55
2022-11-08T23:01:32.985Z,1.65
2022-11-08T23:04:34.749Z,1.50
2022-11-08T23:07:36.461Z,1.60
2022-11-08T23:10:58.159Z,1.58
2022-11-08T23:14:18.411Z,1.73
2022-11-08T23:17:20.097Z,1.70
2022-11-08T23:20:40.874Z,1.75
2022-11-08T23:24:01.233Z,1.80
2022-11-08T23:27:22.676Z,1.52
2022-11-08T23:30:42.702Z,1.58
2022-11-08T23:33:44.549Z,1.65
2022-11-08T23:36:46.177Z,1.63
2022-11-08T23:40:06.423Z,1.70
2022-11-08T23:43:36.206Z,1.55
2022-11-08T23:46:37.943Z,1.50
2022-11-08T23:49:39.745Z,1.58
2022-11-08T23:52:41.534Z,1.65
2022-11-08T23:55:43.251Z,1.70
2022-11-08T23:58:45.124Z,1.63
